Time;durP1;ratioP1;P1;durP2;ratioP2;P2;SDS_P1;SDS_P2;PMS_P1;PMS_P2;Temp;Humidity;BMP_temperature;BMP_pressure;BME280_temperature;BME280_humidity;BME280_pressure;Samples;Min_cycle;Max_cycle;Signal;HPM_P1;HPM_P2
2023/03/02 00:01:41;;;;;;;2.60;2.30;;;;;;;;;;5071252;28;20039;-79
2023/03/02 00:04:08;;;;;;;2.70;2.50;;;;;;;;;;5071204;28;20047;-78
2023/03/02 00:06:34;;;;;;;1.73;1.52;;;;;;;;;;5052682;28;20028;-78
2023/03/02 00:09:00;;;;;;;1.42;1.38;;;;;;;;;;5053125;28;20037;-78
2023/03/02 00:11:30;;;;;;;3.80;2.78;;;;;;;;;;5053135;28;20043;-79
2023/03/02 00:13:57;;;;;;;1.38;1.33;;;;;;;;;;5053506;28;20036;-79
2023/03/02 00:16:23;;;;;;;3.53;2.63;;;;;;;;;;5041742;28;20242;-77
2023/03/02 00:18:49;;;;;;;4.47;3.03;;;;;;;;;;5073700;28;20040;-78
2023/03/02 00:21:15;;;;;;;2.55;2.35;;;;;;;;;;5073341;28;20054;-77
2023/03/02 00:23:41;;;;;;;2.92;2.72;;;;;;;;;;5072195;28;20048;-80
2023/03/02 00:26:07;;;;;;;1.88;1.77;;;;;;;;;;5053489;28;20085;-79
2023/03/02 00:28:33;;;;;;;4.38;2.92;;;;;;;;;;5072447;28;20044;-78
2023/03/02 00:31:02;;;;;;;3.30;2.35;;;;;;;;;;5072504;28;20049;-78
2023/03/02 00:33:28;;;;;;;1.40;1.38;;;;;;;;;;5072728;28;20063;-77
2023/03/02 00:35:54;;;;;;;2.83;2.60;;;;;;;;;;5072605;28;21272;-79
2023/03/02 00:38:20;;;;;;;2.13;2.00;;;;;;;;;;5073412;28;20036;-80
2023/03/02 00:40:47;;;;;;;5.70;2.90;;;;;;;;;;5073937;28;20028;-80
2023/03/02 00:43:14;;;;;;;2.40;2.30;;;;;;;;;;5074858;28;20040;-81
2023/03/02 00:45:40;;;;;;;2.88;2.40;;;;;;;;;;5081505;28;20024;-81
2023/03/02 00:48:06;;;;;;;2.70;2.50;;;;;;;;;;5082807;28;20028;-80
2023/03/02 00:50:32;;;;;;;2.22;2.13;;;;;;;;;;5082743;28;20039;-79
2023/03/02 00:52:59;;;;;;;3.92;2.88;;;;;;;;;;5064146;28;20028;-79
2023/03/02 00:55:25;;;;;;;2.97;2.78;;;;;;;;;;5067515;28;20037;-78
2023/03/02 00:57:54;;;;;;;6.22;2.20;;;;;;;;;;5061714;28;20650;-78
2023/03/02 01:00:27;;;;;;;2.55;2.35;;;;;;;;;;5041010;28;20064;-78
2023/03/02 01:02:56;;;;;;;3.25;2.50;;;;;;;;;;5042707;28;20090;-78
2023/03/02 01:05:22;;;;;;;1.60;1.60;;;;;;;;;;5049736;28;20052;-79
2023/03/02 01:07:49;;;;;;;1.15;1.15;;;;;;;;;;5071415;28;20039;-79
2023/03/02 01:10:14;;;;;;;1.63;1.25;;;;;;;;;;5036248;28;20045;-79
2023/03/02 01:12:41;;;;;;;2.15;2.08;;;;;;;;;;5052094;28;20071;-80
2023/03/02 01:15:07;;;;;;;4.95;2.50;;;;;;;;;;5050858;28;20635;-79
2023/03/02 01:17:33;;;;;;;7.43;2.55;;;;;;;;;;5071275;28;20112;-78
2023/03/02 01:19:59;;;;;;;3.95;2.72;;;;;;;;;;5070249;28;20033;-78
2023/03/02 01:22:25;;;;;;;2.08;1.98;;;;;;;;;;5069879;28;20037;-79
2023/03/02 01:24:52;;;;;;;3.05;2.80;;;;;;;;;;5039517;28;20040;-80
2023/03/02 01:27:18;;;;;;;1.77;1.67;;;;;;;;;;5071330;28;20105;-79
2023/03/02 01:29:45;;;;;;;3.67;2.70;;;;;;;;;;5071858;28;20036;-78
2023/03/02 01:32:11;;;;;;;2.85;2.22;;;;;;;;;;5055300;28;20086;-81
2023/03/02 01:34:37;;;;;;;2.17;2.08;;;;;;;;;;5073116;28;20500;-80
2023/03/02 01:37:04;;;;;;;3.20;2.08;;;;;;;;;;5053890;28;20050;-79
2023/03/02 01:39:29;;;;;;;5.63;2.40;;;;;;;;;;5051772;28;20512;-80
2023/03/02 01:41:56;;;;;;;2.60;1.77;;;;;;;;;;5046210;28;20123;-78
2023/03/02 01:44:38;;;;;;;1.95;1.85;;;;;;;;;;5054107;28;20045;-80
2023/03/02 01:47:18;;;;;;;2.80;2.63;;;;;;;;;;5053496;28;20082;-80
2023/03/02 01:50:04;;;;;;;3.03;2.28;;;;;;;;;;5058005;28;20469;-79
2023/03/02 01:52:37;;;;;;;1.77;1.67;;;;;;;;;;5041308;28;20069;-79
2023/03/02 01:55:05;;;;;;;1.70;1.60;;;;;;;;;;5060961;28;20124;-80
2023/03/02 01:57:31;;;;;;;1.23;1.23;;;;;;;;;;5074366;28;20067;-80
2023/03/02 01:59:59;;;;;;;1.55;1.45;;;;;;;;;;5054013;28;20098;-78
2023/03/02 02:02:26;;;;;;;2.50;1.98;;;;;;;;;;5053312;28;20135;-78
2023/03/02 02:04:52;;;;;;;1.00;1.00;;;;;;;;;;5036253;28;20043;-80
2023/03/02 02:07:18;;;;;;;3.90;1.70;;;;;;;;;;5052341;28;20123;-79
2023/03/02 02:09:48;;;;;;;3.33;2.17;;;;;;;;;;5053342;28;20053;-80
2023/03/02 02:12:15;;;;;;;2.10;1.90;;;;;;;;;;5058917;28;20071;-78
2023/03/02 02:14:41;;;;;;;2.60;2.40;;;;;;;;;;5073164;28;20036;-79
2023/03/02 02:17:07;;;;;;;1.77;1.70;;;;;;;;;;5074867;28;20101;-79
2023/03/02 02:19:52;;;;;;;3.35;2.05;;;;;;;;;;5058142;28;20047;-79
2023/03/02 02:22:21;;;;;;;2.33;2.22;;;;;;;;;;5074305;28;20037;-76
2023/03/02 02:24:51;;;;;;;3.10;1.98;;;;;;;;;;5073156;28;20066;-79
2023/03/02 02:27:17;;;;;;;2.45;1.98;;;;;;;;;;5072509;28;20086;-78
2023/03/02 02:29:44;;;;;;;1.90;1.80;;;;;;;;;;5071471;28;20127;-76
2023/03/02 02:32:18;;;;;;;3.25;2.20;;;;;;;;;;5054741;28;20040;-77
2023/03/02 02:34:52;;;;;;;1.30;1.20;;;;;;;;;;5053846;28;20519;-77
2023/03/02 02:37:23;;;;;;;1.75;1.73;;;;;;;;;;5054223;28;20036;-77
2023/03/02 02:39:49;;;;;;;1.80;1.70;;;;;;;;;;5037181;28;20029;-78
2023/03/02 02:42:17;;;;;;;1.48;1.48;;;;;;;;;;5054972;28;20094;-76
2023/03/02 02:44:43;;;;;;;1.40;1.40;;;;;;;;;;5054641;28;20036;-78
2023/03/02 02:47:16;;;;;;;2.10;1.80;;;;;;;;;;5054375;28;20039;-79
2023/03/02 02:49:42;;;;;;;1.77;1.67;;;;;;;;;;5072238;28;20163;-78
2023/03/02 02:52:09;;;;;;;1.90;1.80;;;;;;;;;;5072284;28;20064;-77
2023/03/02 02:54:35;;;;;;;1.88;1.77;;;;;;;;;;5072000;28;20685;-78
2023/03/02 02:57:01;;;;;;;2.13;2.00;;;;;;;;;;5038056;28;20044;-78
2023/03/02 02:59:28;;;;;;;2.17;1.67;;;;;;;;;;5021293;28;20063;-78
2023/03/02 03:01:56;;;;;;;1.95;1.85;;;;;;;;;;5051752;28;20025;-78
2023/03/02 03:04:24;;;;;;;1.90;1.80;;;;;;;;;;5052723;28;20052;-80
2023/03/02 03:06:51;;;;;;;7.30;2.33;;;;;;;;;;5053535;28;20020;-80
2023/03/02 03:09:17;;;;;;;1.83;1.73;;;;;;;;;;5052456;28;20036;-79
2023/03/02 03:11:50;;;;;;;2.00;1.90;;;;;;;;;;5068570;28;20024;-79
2023/03/02 03:14:18;;;;;;;2.05;1.92;;;;;;;;;;5054887;28;20535;-79
2023/03/02 03:16:47;;;;;;;2.17;1.85;;;;;;;;;;5041314;28;20135;-80
2023/03/02 03:19:20;;;;;;;2.13;1.88;;;;;;;;;;5051192;28;20056;-79
2023/03/02 03:21:48;;;;;;;2.40;2.00;;;;;;;;;;5057098;28;20118;-79
2023/03/02 03:24:14;;;;;;;1.88;1.77;;;;;;;;;;5052204;28;20058;-77
2023/03/02 03:26:41;;;;;;;2.10;1.90;;;;;;;;;;5036296;28;20036;-78
2023/03/02 03:29:07;;;;;;;2.65;2.30;;;;;;;;;;5053842;28;20048;-78
2023/03/02 03:31:33;;;;;;;2.47;2.28;;;;;;;;;;5071247;28;20059;-79
2023/03/02 03:34:00;;;;;;;3.45;2.13;;;;;;;;;;5070607;28;20496;-79
2023/03/02 03:36:29;;;;;;;3.30;2.58;;;;;;;;;;5071691;28;20143;-78
2023/03/02 03:38:56;;;;;;;3.33;2.53;;;;;;;;;;5036625;28;20124;-78
2023/03/02 03:41:22;;;;;;;2.60;2.45;;;;;;;;;;5071346;28;20074;-77
2023/03/02 03:43:48;;;;;;;2.50;2.30;;;;;;;;;;5053351;28;20079;-77
2023/03/02 03:46:15;;;;;;;2.92;2.45;;;;;;;;;;5053533;28;20106;-76
2023/03/02 03:48:41;;;;;;;5.75;2.53;;;;;;;;;;5053377;28;20047;-77
2023/03/02 03:51:07;;;;;;;3.40;2.30;;;;;;;;;;5033713;28;20067;-78
2023/03/02 03:53:33;;;;;;;3.15;2.38;;;;;;;;;;5051416;28;20462;-77
2023/03/02 03:56:01;;;;;;;1.83;1.73;;;;;;;;;;5040062;28;20078;-77
2023/03/02 03:58:27;;;;;;;6.18;2.20;;;;;;;;;;5036536;28;20044;-78
2023/03/02 04:00:53;;;;;;;2.17;2.08;;;;;;;;;;5016600;28;20025;-78
2023/03/02 04:03:20;;;;;;;2.88;2.03;;;;;;;;;;5034122;28;20060;-77
2023/03/02 04:05:46;;;;;;;3.03;2.83;;;;;;;;;;5052845;28;20036;-79
2023/03/02 04:08:12;;;;;;;3.05;2.72;;;;;;;;;;5072705;28;20040;-75
2023/03/02 04:10:39;;;;;;;2.75;2.58;;;;;;;;;;5058440;28;20511;-77
2023/03/02 04:13:05;;;;;;;1.98;1.88;;;;;;;;;;5038822;28;20036;-78
2023/03/02 04:15:32;;;;;;;2.20;2.10;;;;;;;;;;5053107;28;20037;-80
2023/03/02 04:17:59;;;;;;;2.45;2.33;;;;;;;;;;5053061;28;20040;-78
2023/03/02 04:20:25;;;;;;;2.33;2.15;;;;;;;;;;5070637;28;20040;-79
2023/03/02 04:22:53;;;;;;;2.42;2.30;;;;;;;;;;5051878;28;20045;-77
2023/03/02 04:25:20;;;;;;;1.80;1.70;;;;;;;;;;5052696;28;20050;-78
2023/03/02 04:27:47;;;;;;;2.72;2.05;;;;;;;;;;5069961;28;20051;-77
2023/03/02 04:30:14;;;;;;;1.92;1.83;;;;;;;;;;5052301;28;20289;-77
2023/03/02 04:32:42;;;;;;;2.10;2.00;;;;;;;;;;5068641;28;20094;-77
2023/03/02 04:35:12;;;;;;;2.75;2.55;;;;;;;;;;5069137;28;20056;-78
2023/03/02 04:37:38;;;;;;;2.00;1.90;;;;;;;;;;5052147;28;20071;-78
2023/03/02 04:40:04;;;;;;;1.95;1.85;;;;;;;;;;5052698;28;20064;-78
2023/03/02 04:42:30;;;;;;;2.03;1.92;;;;;;;;;;5070473;28;20531;-79
2023/03/02 04:44:56;;;;;;;2.38;2.13;;;;;;;;;;5052590;28;20040;-79
2023/03/02 04:47:22;;;;;;;2.05;1.98;;;;;;;;;;5070450;28;20066;-79
2023/03/02 04:49:53;;;;;;;2.58;2.38;;;;;;;;;;5070228;28;20036;-78
2023/03/02 04:52:23;;;;;;;2.15;2.05;;;;;;;;;;5039786;28;20078;-80
2023/03/02 04:54:49;;;;;;;2.78;2.28;;;;;;;;;;5076633;28;20043;-80
2023/03/02 04:57:16;;;;;;;3.08;2.72;;;;;;;;;;5063254;28;20029;-80
2023/03/02 04:59:42;;;;;;;1.95;1.85;;;;;;;;;;5042101;28;20044;-79
2023/03/02 05:02:08;;;;;;;2.22;2.03;;;;;;;;;;5076048;28;20032;-80
2023/03/02 05:04:33;;;;;;;2.65;2.38;;;;;;;;;;5066060;28;20060;-79
2023/03/02 05:06:59;;;;;;;2.97;2.67;;;;;;;;;;5074683;28;20036;-79
2023/03/02 05:09:27;;;;;;;2.22;2.13;;;;;;;;;;5075974;28;20062;-78
2023/03/02 05:11:54;;;;;;;2.20;2.00;;;;;;;;;;5058415;28;20040;-79
2023/03/02 05:14:20;;;;;;;2.25;2.08;;;;;;;;;;5071194;28;20031;-79
2023/03/02 05:16:46;;;;;;;2.30;2.10;;;;;;;;;;5071121;28;20075;-79
2023/03/02 05:19:12;;;;;;;2.38;2.28;;;;;;;;;;5036595;28;20037;-79
2023/03/02 05:21:38;;;;;;;2.45;2.33;;;;;;;;;;5071439;28;20040;-78
2023/03/02 05:24:05;;;;;;;7.07;2.55;;;;;;;;;;5071966;28;20072;-80
2023/03/02 05:26:31;;;;;;;2.45;2.25;;;;;;;;;;5073699;28;20025;-80
2023/03/02 05:28:57;;;;;;;2.13;1.92;;;;;;;;;;5072183;28;20040;-80
2023/03/02 05:31:26;;;;;;;2.60;2.45;;;;;;;;;;5051799;28;20502;-74
2023/03/02 05:33:53;;;;;;;2.63;2.53;;;;;;;;;;5050849;28;20032;-73
2023/03/02 05:36:18;;;;;;;2.05;1.95;;;;;;;;;;5050589;28;20028;-74
2023/03/02 05:38:45;;;;;;;1.75;1.73;;;;;;;;;;5068628;28;20036;-75
2023/03/02 05:41:11;;;;;;;3.28;1.92;;;;;;;;;;5068962;28;20025;-76
2023/03/02 05:43:37;;;;;;;2.90;2.70;;;;;;;;;;5050899;28;20626;-76
2023/03/02 05:46:03;;;;;;;9.90;2.95;;;;;;;;;;5061034;28;20032;-75
2023/03/02 05:48:30;;;;;;;2.30;2.10;;;;;;;;;;5031996;28;20130;-76
2023/03/02 05:50:56;;;;;;;3.20;2.35;;;;;;;;;;5052346;28;20025;-75
2023/03/02 05:53:22;;;;;;;2.63;2.42;;;;;;;;;;5061253;28;20052;-75
2023/03/02 05:55:48;;;;;;;3.00;2.53;;;;;;;;;;5049718;28;20032;-75
2023/03/02 05:58:14;;;;;;;4.65;2.75;;;;;;;;;;5033479;28;20542;-75
2023/03/02 06:00:41;;;;;;;2.30;2.20;;;;;;;;;;5068536;28;20520;-74
2023/03/02 06:03:07;;;;;;;2.67;1.88;;;;;;;;;;5068647;28;20134;-73
2023/03/02 06:05:33;;;;;;;2.95;2.10;;;;;;;;;;5066994;28;20082;-74
2023/03/02 06:07:59;;;;;;;2.13;2.00;;;;;;;;;;5057994;28;20064;-75
2023/03/02 06:10:25;;;;;;;2.80;2.45;;;;;;;;;;5057875;28;20594;-76
2023/03/02 06:12:51;;;;;;;2.17;2.05;;;;;;;;;;5041119;28;20136;-76
2023/03/02 06:15:20;;;;;;;2.30;2.10;;;;;;;;;;5050074;28;20033;-77
2023/03/02 06:17:46;;;;;;;2.83;2.10;;;;;;;;;;5068160;28;20558;-76
2023/03/02 06:20:12;;;;;;;4.15;2.42;;;;;;;;;;5050028;28;20538;-76
2023/03/02 06:22:41;;;;;;;2.22;2.08;;;;;;;;;;5049798;28;20032;-75
2023/03/02 06:25:08;;;;;;;2.17;2.08;;;;;;;;;;5068010;28;20051;-74
2023/03/02 06:27:34;;;;;;;3.03;2.65;;;;;;;;;;5049221;28;20032;-73
2023/03/02 06:30:00;;;;;;;3.45;2.40;;;;;;;;;;5066799;28;20114;-76
2023/03/02 06:32:27;;;;;;;1.48;1.48;;;;;;;;;;5067469;28;20025;-74
2023/03/02 06:34:53;;;;;;;2.00;1.90;;;;;;;;;;5062278;28;20102;-77
2023/03/02 06:37:19;;;;;;;4.75;4.35;;;;;;;;;;5050194;28;20507;-76
2023/03/02 06:39:45;;;;;;;1.42;1.42;;;;;;;;;;5067966;28;20419;-78
2023/03/02 06:42:12;;;;;;;1.50;1.50;;;;;;;;;;5067909;28;20079;-76
2023/03/02 06:44:38;;;;;;;2.70;2.22;;;;;;;;;;5068032;28;20052;-75
2023/03/02 06:47:04;;;;;;;1.50;1.50;;;;;;;;;;5067119;28;20061;-76
2023/03/02 06:49:30;;;;;;;1.48;1.45;;;;;;;;;;5068143;28;20458;-76
2023/03/02 06:51:56;;;;;;;2.63;2.42;;;;;;;;;;5049828;28;20037;-78
2023/03/02 06:54:22;;;;;;;2.13;2.00;;;;;;;;;;5067670;28;20029;-77
2023/03/02 06:56:48;;;;;;;2.88;2.67;;;;;;;;;;5067152;28;20041;-75
2023/03/02 06:59:14;;;;;;;2.33;2.10;;;;;;;;;;5067635;28;20032;-78
2023/03/02 07:01:40;;;;;;;1.77;1.73;;;;;;;;;;5069943;28;20393;-77
2023/03/02 07:04:06;;;;;;;2.67;1.95;;;;;;;;;;5071243;28;20040;-78
2023/03/02 07:06:32;;;;;;;2.92;2.05;;;;;;;;;;5052627;28;20111;-77
2023/03/02 07:08:58;;;;;;;2.80;2.60;;;;;;;;;;5058245;28;20028;-75
2023/03/02 07:11:24;;;;;;;6.43;1.98;;;;;;;;;;5070397;28;20028;-77
2023/03/02 07:13:50;;;;;;;2.00;1.90;;;;;;;;;;5052535;28;20028;-76
2023/03/02 07:16:16;;;;;;;2.20;2.08;;;;;;;;;;5070173;28;20044;-77
2023/03/02 07:18:42;;;;;;;1.80;1.70;;;;;;;;;;5052858;28;20039;-78
2023/03/02 07:21:08;;;;;;;3.10;2.28;;;;;;;;;;5070554;28;20036;-76
2023/03/02 07:23:34;;;;;;;1.83;1.73;;;;;;;;;;5051834;28;20040;-75
2023/03/02 07:26:00;;;;;;;1.95;1.85;;;;;;;;;;5052660;28;20078;-74
2023/03/02 07:28:26;;;;;;;2.10;2.00;;;;;;;;;;5035818;28;20032;-76
2023/03/02 07:30:53;;;;;;;3.08;2.38;;;;;;;;;;5070355;28;20540;-76
2023/03/02 07:33:19;;;;;;;1.88;1.77;;;;;;;;;;5053192;28;20036;-75
2023/03/02 07:35:45;;;;;;;3.15;2.60;;;;;;;;;;5070399;28;20620;-75
2023/03/02 07:38:11;;;;;;;2.15;2.05;;;;;;;;;;5070932;28;20036;-76
2023/03/02 07:40:40;;;;;;;2.60;2.40;;;;;;;;;;5053953;28;20033;-76
2023/03/02 07:43:07;;;;;;;2.90;2.67;;;;;;;;;;5071303;28;20083;-76
2023/03/02 07:45:32;;;;;;;3.53;2.25;;;;;;;;;;5071030;28;20063;-76
2023/03/02 07:47:58;;;;;;;3.95;2.92;;;;;;;;;;5070572;28;20117;-74
2023/03/02 07:50:24;;;;;;;2.60;2.40;;;;;;;;;;5052373;28;20043;-76
2023/03/02 07:52:50;;;;;;;4.72;2.53;;;;;;;;;;5052402;28;20583;-76
2023/03/02 07:55:16;;;;;;;2.10;2.00;;;;;;;;;;5070226;28;20116;-76
2023/03/02 07:57:42;;;;;;;3.00;2.17;;;;;;;;;;5070384;28;20064;-76
2023/03/02 08:00:09;;;;;;;1.63;1.63;;;;;;;;;;5069897;28;20033;-77
2023/03/02 08:02:38;;;;;;;1.60;1.50;;;;;;;;;;5052330;28;20043;-76
2023/03/02 08:05:05;;;;;;;2.55;2.35;;;;;;;;;;5070780;28;20063;-78
2023/03/02 08:07:30;;;;;;;6.63;2.70;;;;;;;;;;5052650;28;20090;-77
2023/03/02 08:09:57;;;;;;;1.73;1.73;;;;;;;;;;5069513;28;20041;-82
2023/03/02 08:12:23;;;;;;;2.40;2.20;;;;;;;;;;5070959;28;20032;-78
2023/03/02 08:14:49;;;;;;;2.08;1.98;;;;;;;;;;5070286;28;20043;-78
2023/03/02 08:17:17;;;;;;;2.38;2.20;;;;;;;;;;5068774;28;20028;-75
2023/03/02 08:19:44;;;;;;;1.50;1.50;;;;;;;;;;5070682;28;20039;-75
2023/03/02 08:22:12;;;;;;;2.28;2.08;;;;;;;;;;5052619;28;20043;-76
2023/03/02 08:24:40;;;;;;;1.60;1.60;;;;;;;;;;5070419;28;20048;-78
2023/03/02 08:27:06;;;;;;;1.92;1.73;;;;;;;;;;5065526;28;20067;-76
2023/03/02 08:29:32;;;;;;;2.45;2.25;;;;;;;;;;5071379;28;20100;-77
2023/03/02 08:31:59;;;;;;;2.00;1.90;;;;;;;;;;5052790;28;20052;-78
2023/03/02 08:34:25;;;;;;;2.13;2.03;;;;;;;;;;5071417;28;20060;-78
2023/03/02 08:36:51;;;;;;;1.80;1.77;;;;;;;;;;5071757;28;20032;-80
2023/03/02 08:39:17;;;;;;;2.08;1.98;;;;;;;;;;5070814;28;20037;-79
2023/03/02 08:41:43;;;;;;;2.20;2.10;;;;;;;;;;5068926;28;20055;-76
2023/03/02 08:44:09;;;;;;;6.60;3.85;;;;;;;;;;5068152;28;20503;-78
2023/03/02 08:46:35;;;;;;;2.00;1.90;;;;;;;;;;5051753;28;20036;-79
2023/03/02 08:49:01;;;;;;;1.83;1.73;;;;;;;;;;5068904;28;20044;-79
2023/03/02 08:51:27;;;;;;;2.00;1.90;;;;;;;;;;5069591;28;20115;-78
2023/03/02 08:53:55;;;;;;;1.60;1.60;;;;;;;;;;5068600;28;20089;-79
2023/03/02 08:56:27;;;;;;;2.22;2.13;;;;;;;;;;5069531;28;20416;-78
2023/03/02 08:58:55;;;;;;;2.50;2.30;;;;;;;;;;5069556;28;20040;-79
2023/03/02 09:01:22;;;;;;;2.90;2.70;;;;;;;;;;5069518;28;20412;-78
2023/03/02 09:03:48;;;;;;;1.42;1.42;;;;;;;;;;5068894;28;20844;-78
2023/03/02 09:06:14;;;;;;;3.25;2.22;;;;;;;;;;5069232;28;20028;-78
2023/03/02 09:08:39;;;;;;;2.00;1.90;;;;;;;;;;5069212;28;20432;-76
2023/03/02 09:11:06;;;;;;;2.35;2.15;;;;;;;;;;5050991;28;20036;-79
2023/03/02 09:13:32;;;;;;;4.28;2.40;;;;;;;;;;5069316;28;20035;-78
2023/03/02 09:15:58;;;;;;;3.28;2.72;;;;;;;;;;5051178;28;20024;-77
2023/03/02 09:18:24;;;;;;;2.85;2.65;;;;;;;;;;5051458;28;20052;-78
2023/03/02 09:20:50;;;;;;;2.97;2.78;;;;;;;;;;5069115;28;20035;-77
2023/03/02 09:23:17;;;;;;;2.40;2.20;;;;;;;;;;5068041;28;20454;-77
2023/03/02 09:25:43;;;;;;;1.70;1.60;;;;;;;;;;5068529;28;20032;-78
2023/03/02 09:28:10;;;;;;;2.85;2.25;;;;;;;;;;5051045;28;20036;-78
2023/03/02 09:30:36;;;;;;;2.03;1.92;;;;;;;;;;5052736;28;20059;-78
2023/03/02 09:33:02;;;;;;;2.03;1.92;;;;;;;;;;5052965;28;20029;-79
2023/03/02 09:35:28;;;;;;;2.30;2.10;;;;;;;;;;5070054;28;20448;-78
2023/03/02 09:37:54;;;;;;;2.17;2.08;;;;;;;;;;5073291;28;20020;-78
2023/03/02 09:40:21;;;;;;;2.72;2.55;;;;;;;;;;5055476;28;20044;-78
2023/03/02 09:43:05;;;;;;;2.47;2.25;;;;;;;;;;5070989;28;20110;-78
2023/03/02 09:45:31;;;;;;;2.53;2.40;;;;;;;;;;5059019;28;20040;-78
2023/03/02 09:48:17;;;;;;;2.30;2.10;;;;;;;;;;5080612;28;20452;-78
2023/03/02 09:51:06;;;;;;;2.90;2.60;;;;;;;;;;5069183;28;20037;-78
2023/03/02 09:53:38;;;;;;;3.30;2.53;;;;;;;;;;5069609;28;20087;-78
2023/03/02 09:56:04;;;;;;;;;;;;;;;;;;5072928;28;20082;-78
2023/03/02 09:58:34;;;;;;;2.13;2.03;;;;;;;;;;5057795;28;20296;-78
2023/03/02 10:01:02;;;;;;;2.13;1.98;;;;;;;;;;5051915;28;20143;-76
2023/03/02 10:03:32;;;;;;;2.05;1.95;;;;;;;;;;5068574;28;20048;-78
2023/03/02 10:05:58;;;;;;;2.10;2.00;;;;;;;;;;5034116;28;20127;-78
2023/03/02 10:08:25;;;;;;;2.22;2.13;;;;;;;;;;5051899;28;20492;-77
2023/03/02 10:10:51;;;;;;;1.60;1.60;;;;;;;;;;5034792;28;20021;-77
2023/03/02 10:13:23;;;;;;;8.52;2.60;;;;;;;;;;5068782;28;20051;-79
2023/03/02 10:16:06;;;;;;;3.42;2.42;;;;;;;;;;5050573;28;20044;-76
2023/03/02 10:18:32;;;;;;;3.40;2.90;;;;;;;;;;5051021;28;20058;-78
2023/03/02 10:20:57;;;;;;;3.33;2.78;;;;;;;;;;5068579;28;20124;-75
2023/03/02 10:23:30;;;;;;;2.53;2.30;;;;;;;;;;5068528;28;20135;-78
2023/03/02 10:26:19;;;;;;;2.15;2.05;;;;;;;;;;5051304;28;20048;-79
2023/03/02 10:28:51;;;;;;;2.17;2.05;;;;;;;;;;5048107;28;20652;-79
2023/03/02 10:31:26;;;;;;;2.30;2.10;;;;;;;;;;5053527;28;20097;-81
2023/03/02 10:33:52;;;;;;;3.55;2.08;;;;;;;;;;5078375;28;20058;-77
2023/03/02 10:36:20;;;;;;;1.65;1.65;;;;;;;;;;5083919;28;20032;-78
2023/03/02 10:38:46;;;;;;;2.40;2.20;;;;;;;;;;5056580;28;20040;-78
2023/03/02 10:41:14;;;;;;;2.10;2.00;;;;;;;;;;5071769;28;20400;-77
2023/03/02 10:43:44;;;;;;;2.00;1.90;;;;;;;;;;5053782;28;20048;-76
2023/03/02 10:46:10;;;;;;;1.55;1.55;;;;;;;;;;5071794;28;20032;-77
2023/03/02 10:48:48;;;;;;;4.38;2.53;;;;;;;;;;5073455;28;20424;-77
2023/03/02 10:51:21;;;;;;;2.00;1.90;;;;;;;;;;5070550;28;20033;-75
2023/03/02 10:53:47;;;;;;;2.28;2.10;;;;;;;;;;5060157;28;20041;-76
2023/03/02 10:56:22;;;;;;;2.03;1.92;;;;;;;;;;5050276;28;20162;-76
2023/03/02 10:58:48;;;;;;;2.05;1.83;;;;;;;;;;5070902;28;20039;-75
2023/03/02 11:01:15;;;;;;;1.70;1.70;;;;;;;;;;5053659;28;20144;-75
2023/03/02 11:03:41;;;;;;;2.08;1.92;;;;;;;;;;5071135;28;20044;-76
2023/03/02 11:06:15;;;;;;;1.75;1.65;;;;;;;;;;5068788;28;20044;-77
2023/03/02 11:08:41;;;;;;;1.77;1.70;;;;;;;;;;5053603;28;20043;-76
2023/03/02 11:11:17;;;;;;;1.67;1.63;;;;;;;;;;5036078;28;20033;-77
2023/03/02 11:13:43;;;;;;;2.30;2.20;;;;;;;;;;5053168;28;20531;-75
2023/03/02 11:16:19;;;;;;;1.70;1.60;;;;;;;;;;5053150;28;20032;-75
2023/03/02 11:18:45;;;;;;;2.03;1.92;;;;;;;;;;5058812;28;20039;-76
2023/03/02 11:21:16;;;;;;;3.08;2.88;;;;;;;;;;5070830;28;20036;-76
2023/03/02 11:23:57;;;;;;;2.17;2.10;;;;;;;;;;5053341;28;20450;-76
2023/03/02 11:26:31;;;;;;;2.25;2.15;;;;;;;;;;5053371;28;20127;-76
2023/03/02 11:29:15;;;;;;;1.48;1.48;;;;;;;;;;5071158;28;20185;-76
2023/03/02 11:32:00;;;;;;;2.50;2.40;;;;;;;;;;5070525;28;20720;-75
2023/03/02 11:34:39;;;;;;;2.55;2.45;;;;;;;;;;5070541;28;20033;-77
2023/03/02 11:37:12;;;;;;;2.70;2.50;;;;;;;;;;5045244;28;20033;-75
2023/03/02 11:39:47;;;;;;;2.88;2.67;;;;;;;;;;5069187;28;20442;-76
2023/03/02 11:42:33;;;;;;;2.42;2.33;;;;;;;;;;5070584;28;20085;-75
2023/03/02 11:45:00;;;;;;;3.22;2.95;;;;;;;;;;5052363;28;20580;-75
2023/03/02 11:47:26;;;;;;;2.90;2.70;;;;;;;;;;5024381;28;20045;-77
2023/03/02 11:49:53;;;;;;;2.85;2.63;;;;;;;;;;5051272;28;20573;-75
2023/03/02 11:52:20;;;;;;;2.67;2.53;;;;;;;;;;5070096;28;20024;-76
2023/03/02 11:54:48;;;;;;;3.08;2.55;;;;;;;;;;5036186;28;20048;-77
2023/03/02 11:57:34;;;;;;;2.67;2.35;;;;;;;;;;5035515;28;20033;-76
2023/03/02 12:00:01;;;;;;;3.00;2.80;;;;;;;;;;5069708;28;20512;-78
2023/03/02 12:02:32;;;;;;;3.38;2.67;;;;;;;;;;5070904;28;20032;-78
2023/03/02 12:05:05;;;;;;;2.50;2.30;;;;;;;;;;5052881;28;20265;-77
2023/03/02 12:07:31;;;;;;;2.50;2.33;;;;;;;;;;5052471;28;20036;-74
2023/03/02 12:09:57;;;;;;;2.60;2.40;;;;;;;;;;5051881;28;20700;-75
2023/03/02 12:12:31;;;;;;;2.42;2.22;;;;;;;;;;5051892;28;20454;-77
2023/03/02 12:14:57;;;;;;;2.42;2.22;;;;;;;;;;5052265;28;20048;-75
2023/03/02 12:17:26;;;;;;;2.08;1.98;;;;;;;;;;5069971;28;20052;-77
2023/03/02 12:19:53;;;;;;;2.80;2.53;;;;;;;;;;5051981;28;20574;-78
2023/03/02 12:22:25;;;;;;;3.00;2.80;;;;;;;;;;5052311;28;20028;-78
2023/03/02 12:24:58;;;;;;;2.70;2.50;;;;;;;;;;5070066;28;20044;-76
2023/03/02 12:27:25;;;;;;;2.60;2.40;;;;;;;;;;5070100;28;20602;-76
2023/03/02 12:29:55;;;;;;;1.90;1.80;;;;;;;;;;5050514;28;20412;-77
2023/03/02 12:32:22;;;;;;;5.13;2.40;;;;;;;;;;5028628;28;20581;-76
2023/03/02 12:34:51;;;;;;;2.25;2.15;;;;;;;;;;5029856;28;20029;-78
2023/03/02 12:37:18;;;;;;;2.47;2.28;;;;;;;;;;5030045;28;20647;-78
2023/03/02 12:39:53;;;;;;;1.92;1.83;;;;;;;;;;5022677;28;20449;-76
2023/03/02 12:42:19;;;;;;;2.40;2.20;;;;;;;;;;5010990;28;20041;-77
2023/03/02 12:45:05;;;;;;;2.42;2.22;;;;;;;;;;5028405;28;20042;-76
2023/03/02 12:47:31;;;;;;;2.63;2.50;;;;;;;;;;5008467;28;20456;-77
2023/03/02 12:49:59;;;;;;;1.90;1.80;;;;;;;;;;5016091;28;20033;-77
2023/03/02 12:52:29;;;;;;;2.42;2.30;;;;;;;;;;5028359;28;20056;-74
2023/03/02 12:54:58;;;;;;;2.45;2.35;;;;;;;;;;5028335;28;20017;-75
2023/03/02 12:57:24;;;;;;;2.25;2.15;;;;;;;;;;5028947;28;20464;-77
2023/03/02 12:59:51;;;;;;;2.33;2.22;;;;;;;;;;5028886;28;20105;-78
2023/03/02 13:02:39;;;;;;;2.80;2.60;;;;;;;;;;5029176;28;20187;-79
2023/03/02 13:05:06;;;;;;;2.20;2.10;;;;;;;;;;5027881;28;20037;-78
2023/03/02 13:07:40;;;;;;;3.55;2.42;;;;;;;;;;5028557;28;20037;-78
2023/03/02 13:10:08;;;;;;;1.95;1.85;;;;;;;;;;5023463;28;20029;-75
2023/03/02 13:12:34;;;;;;;1.80;1.70;;;;;;;;;;5021575;28;20156;-74
2023/03/02 13:15:00;;;;;;;1.90;1.80;;;;;;;;;;5014563;28;20493;-74
2023/03/02 13:17:30;;;;;;;1.50;1.50;;;;;;;;;;5028807;28;20130;-73
2023/03/02 13:20:00;;;;;;;2.00;1.90;;;;;;;;;;5028748;28;20117;-74
2023/03/02 13:22:26;;;;;;;2.28;2.00;;;;;;;;;;5028194;28;20052;-76
2023/03/02 13:25:01;;;;;;;1.77;1.77;;;;;;;;;;5029204;28;20049;-76
2023/03/02 13:27:28;;;;;;;2.08;1.98;;;;;;;;;;5028599;28;20036;-75
2023/03/02 13:29:55;;;;;;;1.90;1.80;;;;;;;;;;5028650;28;20029;-73
2023/03/02 13:32:25;;;;;;;1.40;1.40;;;;;;;;;;5033681;28;20178;-73
2023/03/02 13:34:57;;;;;;;1.98;1.88;;;;;;;;;;5068312;28;20518;-75
2023/03/02 13:37:26;;;;;;;2.25;2.15;;;;;;;;;;5050746;28;20068;-76
2023/03/02 13:39:56;;;;;;;2.17;1.98;;;;;;;;;;5068379;28;20122;-76
2023/03/02 13:42:27;;;;;;;2.35;2.15;;;;;;;;;;5068722;28;20123;-74
2023/03/02 13:44:53;;;;;;;2.10;2.00;;;;;;;;;;5068186;28;20044;-76
2023/03/02 13:47:22;;;;;;;3.30;2.47;;;;;;;;;;5068464;28;20037;-76
2023/03/02 13:49:48;;;;;;;2.17;2.08;;;;;;;;;;5050051;28;20036;-77
2023/03/02 13:52:17;;;;;;;3.03;1.92;;;;;;;;;;5067658;28;20398;-75
2023/03/02 13:54:44;;;;;;;2.42;2.22;;;;;;;;;;5068484;28;20035;-78
2023/03/02 13:57:11;;;;;;;2.40;2.30;;;;;;;;;;5067825;28;20032;-76
2023/03/02 13:59:37;;;;;;;2.40;2.30;;;;;;;;;;5017817;28;20121;-78
2023/03/02 14:02:10;;;;;;;2.70;2.50;;;;;;;;;;5068460;28;20450;-78
2023/03/02 14:04:36;;;;;;;4.03;3.17;;;;;;;;;;5050907;28;20094;-76
2023/03/02 14:07:03;;;;;;;3.03;1.88;;;;;;;;;;5067918;28;20032;-79
2023/03/02 14:09:29;;;;;;;2.92;2.72;;;;;;;;;;5050194;28;20028;-78
2023/03/02 14:11:56;;;;;;;2.28;2.17;;;;;;;;;;5072138;28;20675;-78
2023/03/02 14:14:23;;;;;;;3.25;2.92;;;;;;;;;;5071984;28;20029;-78
2023/03/02 14:16:49;;;;;;;2.05;1.95;;;;;;;;;;5021467;28;20036;-78
2023/03/02 14:19:17;;;;;;;2.40;2.30;;;;;;;;;;5053208;28;20090;-77
2023/03/02 14:21:43;;;;;;;2.78;2.17;;;;;;;;;;5072954;28;20105;-78
2023/03/02 14:24:09;;;;;;;2.78;1.88;;;;;;;;;;5070594;28;20043;-78
2023/03/02 14:26:39;;;;;;;2.42;2.33;;;;;;;;;;5072128;28;20063;-79
2023/03/02 14:29:09;;;;;;;2.90;2.70;;;;;;;;;;5065972;28;20024;-78
2023/03/02 14:31:35;;;;;;;1.85;1.75;;;;;;;;;;5072199;28;20048;-82
2023/03/02 14:34:01;;;;;;;2.67;2.58;;;;;;;;;;5072628;28;20052;-80
2023/03/02 14:36:31;;;;;;;2.63;2.40;;;;;;;;;;5054887;28;20040;-80
2023/03/02 14:38:58;;;;;;;2.03;1.92;;;;;;;;;;5052746;28;20056;-78
2023/03/02 14:41:24;;;;;;;4.53;3.13;;;;;;;;;;5072043;28;20774;-77
2023/03/02 14:43:50;;;;;;;2.58;2.38;;;;;;;;;;5052765;28;20037;-76
2023/03/02 14:46:16;;;;;;;2.25;2.15;;;;;;;;;;5037006;28;20115;-79
2023/03/02 14:48:42;;;;;;;7.70;2.10;;;;;;;;;;5052986;28;20162;-77